Trujillo Alto, PR (00976)

12:47 AM AST on March 01, 2015 (GMT -0400)
Manejo de Emergencias Carolina | Change Station
CLOSE
Current Station
Personal Weather Station
Location: Carolina, PR
Elevation: 40 ft
Nearby Weather Stations

Elev 40 ft 18.38 °N, 65.97 °W | Updated 13 minutes ago

Light Rain
Light Rain
73.5 °F
Feels Like 72 °F
N
0.0
Wind Variable Wind from SSE
Gusts 1.0 mph

Today
High -- | Low -- °F
--% Chance of Precip.
Yesterday
High -- | Low -- °F
Precip. -- in
6:43 AM 6:29 PM
Waxing Gibbous, 82% visible
Pressure 30.13 in
Visibility 10.0 miles
Clouds Few 2800 ft
Scattered Clouds 4500 ft
Heat Index 72 °F
Dew Point 69 °F
Humidity 87%
Rainfall -999.00 in
Snow Depth Not available.
UV 0 out of 12
Pollen Not available.
Air Quality Not available.
Flu Activity Not available.
METAR TJSJ 010356Z 10007KT 10SM -RA FEW028 SCT045 24/21 A3014 RMK AO2 RAB41 SLP203 P0000 T02390211 402890222

More Conditions Fewer Conditions

Pressure 30.13 in
Visibility 10.0 miles
Clouds Few 2800 ft
Scattered Clouds 4500 ft
Heat Index 72 °F
Dew Point 69 °F
Humidity 87%
Rainfall -999.00 in
Snow Depth Not available.
UV 0 out of 12
Pollen Not available.
Air Quality Not available.
Flu Activity Not available.
METAR TJSJ 010356Z 10007KT 10SM -RA FEW028 SCT045 24/21 A3014 RMK AO2 RAB41 SLP203 P0000 T02390211 402890222

More Conditions Fewer Conditions

10-Day Weather Forecast

Almanac

Astronomy

Mar. 01, 2015 Rise Set
Actual Time
Civil Twilight
Nautical Twilight
Astronomical Twilight
Moon
Length of Visible Light
Length of Day
Tomorrow will be .
, % of the Moon is Illuminated

Today's Extremes

State Highs State Lows

Community

WunderPhotos

Upload Photos

1,801,320 photos uploaded!

WunderBlogs® & News

Nearby

Air Quality

  Air Quality AQ Index Pollutant
Not available.

Snow Depth

Station Depth Elevation

Earthquake Activity

City Distance Mag. Time & Date
Minimum magnitude displayed is 2.5.

Coastal Water Temperatures

Place Temperature

Nearby Weather Stations